UPSVAC Airport Information Service

Sydney Kingsford Smith Airport

ICAO: YSSY Country: Australia
Latitude: -33.9461 Longitude: 151.177
Latest Arrival : UPSJUMP (KSHV-YSSY) Latest Departure : REP892 (YSSY-ZHUB)


WX CaptureLIVE
Data provided by noaa.gov | Fetched at 12:52:45

METAR : YSSY 251230Z 02012KT 9999 FEW015 25/21 Q1004

TAF : YSSY 251111Z 2512/2618 02010KT CAVOK FM252100 34008KT CAVOK FM260200 04020KT CAVOK FM261000 02014KT CAVOK FM261200 18015G25KT 9999 -SHRA SCT008 BKN020


Runway Data for YSSY
Data provided by openaviationdata.com

Runway ID Mag Var Hdg Length Elevation Surface ILS Freq ILS Id ILS Slope
7 13 61° 8292 ft 21 ft Asphalt 109.9 ISY 3
16L 13 154° 8011 ft 21 ft Asphalt 110.9 ISS 3
16R 13 154° 13022 ft 21 ft Asphalt 109.5 IKS 3
25 13 241° 8292 ft 21 ft Asphalt 109.7 ISW 3
34L 13 334° 13022 ft 21 ft Asphalt 110.1 ISN 3
34R 13 334° 8011 ft 21 ft Asphalt 109.3 IKN 3

Sydney Kingsford Smith Airport, Australia
Use only for reference purposes



Not for navigational purposes.